Time;durP1;ratioP1;P1;durP2;ratioP2;P2;SDS_P1;SDS_P2;PMS_P1;PMS_P2;Temp;Humidity;BMP_temperature;BMP_pressure;BME280_temperature;BME280_humidity;BME280_pressure;Samples;Min_cycle;Max_cycle;Signal;HPM_P1;HPM_P2
2021/12/07 00:00:58;;;;;;;9.88;3.35;;;18.60;47.00;;;;;;4807740;29;20227;-79
2021/12/07 00:03:27;;;;;;;10.05;3.50;;;18.50;46.80;;;;;;4792992;29;20212;-79
2021/12/07 00:05:55;;;;;;;8.18;3.22;;;18.50;46.90;;;;;;4793188;29;20200;-79
2021/12/07 00:08:22;;;;;;;9.88;3.30;;;18.60;46.70;;;;;;4822601;29;20170;-79
2021/12/07 00:10:50;;;;;;;12.98;3.72;;;18.50;46.90;;;;;;4792387;29;20269;-79
2021/12/07 00:13:15;;;;;;;7.72;3.30;;;18.60;47.00;;;;;;4822981;29;20218;-79
2021/12/07 00:15:47;;;;;;;9.40;3.17;;;18.50;46.80;;;;;;4807800;29;20159;-79
2021/12/07 00:18:13;;;;;;;9.52;3.40;;;18.50;46.90;;;;;;4808283;29;20169;-79
2021/12/07 00:20:40;;;;;;;8.63;3.50;;;18.50;46.90;;;;;;4808768;29;20190;-79
2021/12/07 00:23:10;;;;;;;12.65;3.30;;;18.50;46.80;;;;;;4807636;29;20170;-80
2021/12/07 00:25:37;;;;;;;8.10;3.38;;;18.50;46.80;;;;;;4823003;29;20167;-79
2021/12/07 00:28:03;;;;;;;7.65;2.88;;;18.50;46.80;;;;;;4791661;29;20228;-79
2021/12/07 00:30:32;;;;;;;13.77;3.53;;;18.50;46.50;;;;;;4792938;29;20195;-79
2021/12/07 00:33:12;;;;;;;9.63;3.70;;;18.50;46.70;;;;;;4807475;29;20201;-79
2021/12/07 00:35:38;;;;;;;11.30;3.20;;;18.50;46.80;;;;;;4796425;29;20189;-79
2021/12/07 00:38:10;;;;;;;11.63;3.25;;;18.50;46.60;;;;;;4807456;29;20245;-79
2021/12/07 00:40:37;;;;;;;9.35;3.55;;;18.50;46.70;;;;;;4822370;29;20159;-79
2021/12/07 00:43:05;;;;;;;5.90;3.00;;;18.50;46.80;;;;;;4791890;29;20170;-79
2021/12/07 00:45:34;;;;;;;9.20;3.28;;;18.50;46.60;;;;;;4792251;29;20619;-80
2021/12/07 00:48:03;;;;;;;10.57;3.13;;;18.50;46.60;;;;;;4807312;29;20170;-79
2021/12/07 00:50:29;;;;;;;8.10;3.10;;;18.50;46.60;;;;;;4791741;29;20167;-79
2021/12/07 00:52:56;;;;;;;10.93;3.15;;;18.50;46.60;;;;;;4791918;29;20777;-79
2021/12/07 00:55:26;;;;;;;8.55;3.22;;;18.50;46.40;;;;;;4791901;29;20181;-79
2021/12/07 00:57:56;;;;;;;10.88;3.30;;;18.50;46.60;;;;;;4822206;29;20165;-79
2021/12/07 01:00:22;;;;;;;7.63;3.10;;;18.50;46.40;;;;;;4791794;29;20245;-79
2021/12/07 01:02:49;;;;;;;8.10;3.92;;;18.50;46.30;;;;;;4791485;29;20189;-79
2021/12/07 01:05:21;;;;;;;6.82;3.20;;;18.50;46.50;;;;;;4791754;29;20176;-79
2021/12/07 01:08:08;;;;;;;8.52;3.85;;;18.50;46.50;;;;;;4793300;29;20174;-79
2021/12/07 01:26:48;;;;;;;10.70;3.33;;;18.60;45.80;;;;;;4837648;29;20177;-79
2021/12/07 01:29:18;;;;;;;8.85;3.05;;;18.50;46.10;;;;;;4806681;29;20299;-79
2021/12/07 01:31:55;;;;;;;8.00;3.15;;;18.60;46.10;;;;;;4806557;29;20198;-79
2021/12/07 01:37:33;;;;;;;8.30;3.33;;;18.60;45.50;;;;;;4811232;29;20166;-79
2021/12/07 01:40:23;;;;;;;7.20;3.05;;;18.60;45.50;;;;;;4823439;29;20181;-79
2021/12/07 01:45:54;;;;;;;9.45;3.25;;;18.60;45.50;;;;;;4809661;29;20166;-79
2021/12/07 02:01:40;;;;;;;8.85;3.13;;;18.60;45.40;;;;;;4809673;29;20162;-79
2021/12/07 02:04:06;;;;;;;12.63;3.83;;;18.60;45.20;;;;;;4790569;29;20178;-79
2021/12/07 02:06:33;;;;;;;8.63;3.15;;;18.60;45.40;;;;;;4805372;29;20177;-80
2021/12/07 02:08:59;;;;;;;6.65;2.83;;;18.50;45.40;;;;;;4805682;29;20225;-79
2021/12/07 02:11:27;;;;;;;7.63;3.22;;;18.50;45.40;;;;;;4805762;29;20216;-79
2021/12/07 02:14:15;;;;;;;10.18;3.30;;;18.50;45.30;;;;;;4791423;29;20174;-79
2021/12/07 02:16:45;;;;;;;7.00;3.38;;;18.60;45.10;;;;;;4810751;29;20178;-79
2021/12/07 02:19:12;;;;;;;7.43;2.90;;;18.60;45.30;;;;;;4791315;29;20200;-79
2021/12/07 02:21:38;;;;;;;12.20;3.53;;;18.50;45.40;;;;;;4820955;29;20177;-79
2021/12/07 02:24:04;;;;;;;6.82;3.10;;;18.50;45.20;;;;;;4820947;29;20170;-79
2021/12/07 02:26:30;;;;;;;5.90;3.50;;;18.60;45.20;;;;;;4806141;29;20640;-79
2021/12/07 02:28:57;;;;;;;8.52;3.40;;;18.60;45.20;;;;;;4805797;29;20168;-79
2021/12/07 02:31:23;;;;;;;8.00;3.22;;;18.50;45.20;;;;;;4790726;29;20254;-79
2021/12/07 02:33:49;;;;;;;6.97;3.08;;;18.50;45.00;;;;;;4805605;29;20199;-79
2021/12/07 02:36:17;;;;;;;6.05;3.17;;;18.50;45.20;;;;;;4805533;29;20291;-79
2021/12/07 02:38:43;;;;;;;10.25;3.10;;;18.50;45.40;;;;;;4790010;29;20227;-79
2021/12/07 02:41:09;;;;;;;9.80;3.33;;;18.50;45.20;;;;;;4805341;29;20163;-79
2021/12/07 02:43:35;;;;;;;9.15;3.70;;;18.60;45.20;;;;;;4804863;29;20196;-79
2021/12/07 02:46:02;;;;;;;8.45;3.38;;;18.60;45.00;;;;;;4790210;29;20166;-79
2021/12/07 02:48:29;;;;;;;6.57;3.10;;;18.50;45.40;;;;;;4790731;29;20166;-79
2021/12/07 02:50:57;;;;;;;4.72;3.03;;;18.50;45.20;;;;;;4791026;29;20170;-79
2021/12/07 02:53:25;;;;;;;6.95;3.40;;;18.50;45.50;;;;;;4805039;29;20194;-79
2021/12/07 02:55:59;;;;;;;6.28;2.97;;;18.50;45.20;;;;;;4804784;29;20175;-79
2021/12/07 02:58:25;;;;;;;9.85;3.25;;;18.50;45.20;;;;;;4820336;29;20165;-79
2021/12/07 03:00:58;;;;;;;8.25;3.00;;;18.50;45.10;;;;;;4805213;29;20170;-79
2021/12/07 03:03:24;;;;;;;8.80;3.20;;;18.50;45.10;;;;;;4791847;29;20174;-79
2021/12/07 03:06:35;;;;;;;13.10;3.25;;;18.50;44.90;;;;;;4805289;29;20158;-79
2021/12/07 03:27:13;;;;;;;6.53;3.15;;;18.50;44.70;;;;;;4824746;29;20219;-79
2021/12/07 03:29:40;;;;;;;6.32;3.13;;;18.50;44.80;;;;;;4807886;29;20174;-79
2021/12/07 03:32:07;;;;;;;6.90;3.20;;;18.50;44.90;;;;;;4822990;29;20205;-79
2021/12/07 03:34:33;;;;;;;9.07;3.50;;;18.50;44.80;;;;;;4823752;29;20499;-79
2021/12/07 03:37:02;;;;;;;9.23;3.38;;;18.50;44.80;;;;;;4808618;29;20266;-79
2021/12/07 03:39:29;;;;;;;9.73;3.65;;;18.50;44.80;;;;;;4839595;29;20164;-79
2021/12/07 03:41:55;;;;;;;6.68;3.17;;;18.50;44.50;;;;;;4807831;29;20549;-79
2021/12/07 03:44:20;;;;;;;7.13;3.15;;;18.50;44.80;;;;;;4839582;29;20222;-79
2021/12/07 03:46:46;;;;;;;7.78;3.13;;;18.50;44.70;;;;;;4823743;29;20170;-79
2021/12/07 03:49:14;;;;;;;10.55;3.55;;;18.50;44.60;;;;;;4807724;29;20178;-79
2021/12/07 03:51:40;;;;;;;7.00;3.00;;;18.50;44.80;;;;;;4807486;29;20185;-80
2021/12/07 03:54:06;;;;;;;7.90;3.10;;;18.50;44.80;;;;;;4807995;29;20261;-79
2021/12/07 03:56:32;;;;;;;5.45;3.00;;;18.40;44.70;;;;;;4808146;29;20177;-79
2021/12/07 03:58:58;;;;;;;9.00;3.33;;;18.50;44.60;;;;;;4823523;29;20184;-79
2021/12/07 04:01:24;;;;;;;6.47;2.92;;;18.50;44.40;;;;;;4807939;29;20247;-79
2021/12/07 04:03:50;;;;;;;6.88;3.28;;;18.50;44.70;;;;;;4807351;29;20545;-79
2021/12/07 04:06:18;;;;;;;5.82;2.85;;;18.50;44.40;;;;;;4808018;29;20170;-79
2021/12/07 04:08:44;;;;;;;6.70;3.13;;;18.50;44.40;;;;;;4838634;29;20204;-79
2021/12/07 04:11:13;;;;;;;8.02;3.15;;;18.50;44.60;;;;;;4822536;29;20167;-79
2021/12/07 04:13:40;;;;;;;9.68;3.40;;;18.50;44.80;;;;;;4822437;29;20206;-79
2021/12/07 04:16:07;;;;;;;8.23;3.50;;;18.40;44.90;;;;;;4808516;29;20186;-79
2021/12/07 04:18:32;;;;;;;6.00;3.30;;;18.40;44.60;;;;;;4807997;29;20174;-80
2021/12/07 04:21:01;;;;;;;6.47;3.20;;;18.40;44.30;;;;;;4808080;29;20177;-79
2021/12/07 04:23:32;;;;;;;6.07;3.00;;;18.40;44.40;;;;;;4823516;29;20166;-79
2021/12/07 04:25:59;;;;;;;8.60;3.13;;;18.40;44.20;;;;;;4822789;29;20158;-79
2021/12/07 04:28:26;;;;;;;6.25;3.10;;;18.50;44.00;;;;;;4821847;29;20177;-79
2021/12/07 04:30:52;;;;;;;5.95;2.90;;;18.50;44.40;;;;;;4807426;29;20234;-79
2021/12/07 04:33:18;;;;;;;8.48;3.10;;;18.50;44.10;;;;;;4821981;29;20201;-79
2021/12/07 04:35:46;;;;;;;8.57;3.47;;;18.50;43.80;;;;;;4822468;29;20180;-79
2021/12/07 04:38:12;;;;;;;6.90;3.13;;;18.50;43.80;;;;;;4822630;29;20162;-79
2021/12/07 04:40:39;;;;;;;5.03;3.05;;;18.60;43.80;;;;;;4807419;29;20553;-79
2021/12/07 04:43:05;;;;;;;5.80;2.85;;;18.60;43.60;;;;;;4822443;29;20194;-79
2021/12/07 04:46:01;;;;;;;6.05;3.10;;;18.60;43.70;;;;;;4821919;29;20193;-80
2021/12/07 04:48:47;;;;;;;5.85;2.90;;;18.60;43.40;;;;;;4825337;29;20204;-79
2021/12/07 04:59:08;;;;;;;6.55;3.42;;;18.60;43.00;;;;;;4823669;29;20178;-79
2021/12/07 05:01:34;;;;;;;4.55;3.05;;;18.70;43.20;;;;;;4821723;29;20521;-78
2021/12/07 05:04:06;;;;;;;4.53;3.00;;;18.70;43.00;;;;;;4806592;29;20175;-78
2021/12/07 05:06:33;;;;;;;7.10;3.10;;;18.70;42.90;;;;;;4807097;29;20194;-78
2021/12/07 05:09:18;;;;;;;6.35;2.88;;;18.70;42.60;;;;;;4821721;29;20167;-78
2021/12/07 05:12:16;;;;;;;4.40;2.60;;;18.70;42.80;;;;;;4824442;29;20253;-78
2021/12/07 05:14:33;;;;;;;6.43;3.20;;;18.80;42.70;;;;;;4823632;29;20245;-78
2021/12/07 05:38:21;;;;;;;4.63;2.60;;;18.70;42.50;;;;;;4822897;29;20189;-79
2021/12/07 05:40:46;;;;;;;5.85;2.63;;;18.80;42.60;;;;;;4805372;29;20174;-79
2021/12/07 05:43:12;;;;;;;6.60;2.85;;;18.80;42.30;;;;;;4805912;29;20217;-79
2021/12/07 05:45:39;;;;;;;5.10;2.78;;;18.80;42.40;;;;;;4821025;29;20166;-79
2021/12/07 05:48:06;;;;;;;5.68;2.75;;;18.80;42.40;;;;;;4820631;29;20171;-79
2021/12/07 05:50:34;;;;;;;5.57;2.80;;;18.70;42.30;;;;;;4805229;29;20170;-79
2021/12/07 05:53:00;;;;;;;5.55;2.83;;;18.80;42.30;;;;;;4820075;29;20212;-80
2021/12/07 05:55:26;;;;;;;4.68;2.50;;;18.80;42.30;;;;;;4791243;29;20197;-79
2021/12/07 05:57:53;;;;;;;3.33;2.67;;;18.90;42.30;;;;;;4820527;29;20166;-79
2021/12/07 06:00:25;;;;;;;3.75;2.65;;;18.80;41.90;;;;;;4790784;29;20200;-79
2021/12/07 06:02:52;;;;;;;5.53;2.92;;;18.80;41.80;;;;;;4791491;29;20185;-79
2021/12/07 06:05:18;;;;;;;4.38;2.53;;;18.80;41.90;;;;;;4805109;29;20277;-79
2021/12/07 06:07:45;;;;;;;6.13;2.90;;;18.80;42.00;;;;;;4790566;29;20181;-78
2021/12/07 06:10:13;;;;;;;3.88;2.55;;;18.80;41.80;;;;;;4820801;29;20232;-79
2021/12/07 06:12:39;;;;;;;4.85;2.58;;;18.90;42.00;;;;;;4820957;29;20194;-79
2021/12/07 06:15:07;;;;;;;6.68;2.60;;;18.80;42.00;;;;;;4790562;29;20178;-78
2021/12/07 06:17:34;;;;;;;5.93;2.80;;;18.80;42.00;;;;;;4790737;29;20174;-78
2021/12/07 06:19:59;;;;;;;3.92;2.63;;;18.80;41.80;;;;;;4790987;29;20619;-78
2021/12/07 06:22:25;;;;;;;3.70;2.75;;;18.80;41.70;;;;;;4820621;29;20181;-78
2021/12/07 06:24:53;;;;;;;4.90;2.83;;;18.90;41.90;;;;;;4806446;29;20201;-79
2021/12/07 06:27:18;;;;;;;5.57;2.42;;;18.90;41.90;;;;;;4821135;29;20162;-79
2021/12/07 06:29:44;;;;;;;4.95;2.63;;;18.80;41.80;;;;;;4820334;29;20625;-78
2021/12/07 06:32:10;;;;;;;2.95;2.47;;;18.80;41.60;;;;;;4790275;29;20201;-78
2021/12/07 06:34:36;;;;;;;5.30;2.50;;;18.90;41.70;;;;;;4789863;29;20273;-78
2021/12/07 06:37:06;;;;;;;4.47;2.55;;;18.90;41.70;;;;;;4811781;29;20587;-78
2021/12/07 06:39:32;;;;;;;3.83;2.90;;;18.90;41.40;;;;;;4854977;29;20169;-80
2021/12/07 06:41:58;;;;;;;4.55;2.85;;;18.90;41.30;;;;;;4838727;29;20182;-79
2021/12/07 06:44:24;;;;;;;3.58;2.60;;;18.90;41.30;;;;;;4823756;29;20169;-79
2021/12/07 06:46:50;;;;;;;4.00;2.83;;;18.90;41.20;;;;;;4823151;29;20170;-79
2021/12/07 06:49:17;;;;;;;5.15;2.83;;;19.00;41.20;;;;;;4823514;29;20170;-79
2021/12/07 06:51:44;;;;;;;3.35;2.67;;;18.90;41.40;;;;;;4824124;29;20239;-83
2021/12/07 06:54:10;;;;;;;4.35;2.72;;;18.90;41.40;;;;;;4812345;29;20571;-79
2021/12/07 06:56:36;;;;;;;4.22;2.70;;;18.90;41.50;;;;;;4824069;29;20162;-80
2021/12/07 06:59:01;;;;;;;5.30;2.60;;;18.90;41.20;;;;;;4823999;29;20191;-79
2021/12/07 07:01:27;;;;;;;4.75;2.75;;;18.90;41.10;;;;;;4840043;29;20158;-79
2021/12/07 07:03:55;;;;;;;3.40;2.30;;;18.90;41.30;;;;;;4822492;29;20178;-80
2021/12/07 07:06:23;;;;;;;3.67;2.50;;;18.90;41.20;;;;;;4808388;29;20189;-79
2021/12/07 07:08:50;;;;;;;5.30;2.47;;;18.80;41.40;;;;;;4822526;29;20241;-79
2021/12/07 07:11:17;;;;;;;5.60;2.72;;;18.80;41.30;;;;;;4823744;29;20161;-79
2021/12/07 07:13:44;;;;;;;3.45;2.63;;;18.90;41.40;;;;;;4822738;29;20653;-79
2021/12/07 07:16:10;;;;;;;4.13;2.60;;;18.80;41.10;;;;;;4794006;29;20174;-79
2021/12/07 07:18:36;;;;;;;3.15;2.80;;;18.90;41.40;;;;;;4808582;29;20253;-79
2021/12/07 07:21:03;;;;;;;4.18;2.70;;;19.00;41.20;;;;;;4794408;29;20182;-79
2021/12/07 07:23:29;;;;;;;4.40;2.58;;;18.90;40.90;;;;;;4794306;29;20201;-79
2021/12/07 07:25:55;;;;;;;3.10;2.42;;;18.90;41.00;;;;;;4823413;29;20177;-79
2021/12/07 07:28:25;;;;;;;3.95;2.70;;;19.00;41.00;;;;;;4793159;29;20200;-79
2021/12/07 07:30:52;;;;;;;3.65;2.60;;;18.90;41.00;;;;;;4808575;29;20257;-79
2021/12/07 07:33:20;;;;;;;3.97;2.78;;;18.90;40.90;;;;;;4808165;29;20194;-79
2021/12/07 07:35:47;;;;;;;4.50;2.75;;;18.90;41.00;;;;;;4793972;29;20178;-79
2021/12/07 07:38:13;;;;;;;4.20;2.70;;;18.90;41.00;;;;;;4808835;29;20169;-79
2021/12/07 07:40:39;;;;;;;3.33;2.63;;;18.90;40.70;;;;;;4807749;29;20242;-79
2021/12/07 07:43:06;;;;;;;4.50;2.90;;;18.90;40.30;;;;;;4792374;29;20178;-79
2021/12/07 07:45:33;;;;;;;3.30;3.00;;;18.80;39.90;;;;;;4807240;29;20165;-80
2021/12/07 07:47:59;;;;;;;4.30;2.80;;;18.90;40.40;;;;;;4808182;29;20240;-79
2021/12/07 07:50:25;;;;;;;3.63;2.70;;;18.90;40.00;;;;;;4807970;29;20166;-79
2021/12/07 07:52:51;;;;;;;4.15;2.72;;;18.90;40.50;;;;;;4792396;29;20218;-79
2021/12/07 07:55:18;;;;;;;4.05;2.97;;;18.90;40.20;;;;;;4808316;29;20174;-79
2021/12/07 07:57:44;;;;;;;3.40;2.70;;;18.90;38.90;;;;;;4807615;29;20170;-79
2021/12/07 08:00:12;;;;;;;2.95;2.38;;;19.00;39.90;;;;;;4807495;29;20165;-79
2021/12/07 08:02:43;;;;;;;3.38;2.63;;;19.00;40.90;;;;;;4837903;29;20570;-79
2021/12/07 08:05:11;;;;;;;3.70;2.70;;;18.90;40.00;;;;;;4807311;29;20276;-80
2021/12/07 08:07:38;;;;;;;3.60;2.63;;;19.00;39.60;;;;;;4822219;29;20162;-78
2021/12/07 08:10:05;;;;;;;3.97;2.83;;;19.00;40.50;;;;;;4805994;29;20221;-79
2021/12/07 08:12:33;;;;;;;3.50;2.63;;;19.00;40.50;;;;;;4807884;29;20201;-80
2021/12/07 08:15:00;;;;;;;4.05;2.83;;;18.90;40.70;;;;;;4828559;29;20169;-79
2021/12/07 08:17:27;;;;;;;6.00;2.80;;;18.90;40.30;;;;;;4839685;29;20172;-79
2021/12/07 08:19:53;;;;;;;3.20;2.90;;;18.90;40.10;;;;;;4825297;29;20205;-79
2021/12/07 08:22:23;;;;;;;3.22;2.83;;;18.90;38.90;;;;;;4825732;29;20180;-79
2021/12/07 08:24:49;;;;;;;4.32;3.20;;;18.90;39.20;;;;;;4824452;29;20169;-79
2021/12/07 08:27:15;;;;;;;5.28;3.45;;;19.00;39.60;;;;;;4825050;29;20165;-79
2021/12/07 08:29:41;;;;;;;3.58;2.95;;;19.00;39.50;;;;;;4824801;29;20219;-78
2021/12/07 08:32:09;;;;;;;4.22;2.60;;;18.90;39.00;;;;;;4824368;29;20209;-79
2021/12/07 08:34:35;;;;;;;3.55;2.80;;;19.00;39.30;;;;;;4840734;29;20170;-78
2021/12/07 08:37:01;;;;;;;4.88;2.90;;;19.00;39.20;;;;;;4824685;29;20261;-78
2021/12/07 08:39:29;;;;;;;3.78;2.63;;;19.00;39.10;;;;;;4840049;29;20170;-79
2021/12/07 08:41:56;;;;;;;4.00;2.65;;;19.00;39.50;;;;;;4816902;29;20198;-78
2021/12/07 08:44:23;;;;;;;4.57;3.17;;;19.00;39.90;;;;;;4806404;29;20174;-80
2021/12/07 08:46:49;;;;;;;3.10;2.80;;;18.90;38.10;;;;;;4817519;29;20241;-78
2021/12/07 08:49:16;;;;;;;4.03;2.70;;;19.00;38.40;;;;;;4824340;29;20696;-79
2021/12/07 08:51:42;;;;;;;4.68;3.00;;;19.00;39.00;;;;;;4823607;29;20173;-78
2021/12/07 09:02:05;;;;;;;3.55;2.67;;;19.10;39.10;;;;;;4839264;29;20173;-79
2021/12/07 09:04:34;;;;;;;5.40;3.00;;;19.00;39.30;;;;;;4824055;29;20230;-79
2021/12/07 09:07:00;;;;;;;3.35;2.75;;;19.10;39.00;;;;;;4839480;29;20166;-79
2021/12/07 09:09:27;;;;;;;4.00;2.72;;;19.10;38.90;;;;;;4823381;29;20229;-79
2021/12/07 09:11:53;;;;;;;5.85;2.95;;;19.00;39.60;;;;;;4815810;29;20193;-80
2021/12/07 09:14:19;;;;;;;3.60;2.65;;;19.00;39.60;;;;;;4836439;29;20182;-78
2021/12/07 09:16:46;;;;;;;5.03;3.20;;;19.00;39.70;;;;;;4821848;29;20212;-79
2021/12/07 09:19:15;;;;;;;6.68;2.90;;;19.10;39.00;;;;;;4791330;29;20308;-78
2021/12/07 09:21:41;;;;;;;5.70;3.10;;;19.10;38.90;;;;;;4802713;29;20242;-78
2021/12/07 09:24:10;;;;;;;5.43;2.88;;;19.10;38.20;;;;;;4805537;29;20173;-77
2021/12/07 09:26:36;;;;;;;4.00;2.70;;;19.20;38.40;;;;;;4790451;29;20209;-78
2021/12/07 09:29:04;;;;;;;4.28;2.58;;;19.20;38.70;;;;;;4805934;29;20174;-79
2021/12/07 09:31:33;;;;;;;7.60;3.05;;;19.20;38.40;;;;;;4805903;29;20162;-79
2021/12/07 09:34:02;;;;;;;12.15;3.10;;;19.20;39.30;;;;;;4790210;29;20213;-79
2021/12/07 09:36:31;;;;;;;6.97;2.60;;;19.20;39.50;;;;;;4820232;29;20178;-79
2021/12/07 09:38:56;;;;;;;6.57;3.00;;;19.10;39.00;;;;;;4768527;30;20337;-79
2021/12/07 09:41:22;;;;;;;8.25;2.72;;;19.10;39.20;;;;;;4768550;30;20195;-79
2021/12/07 09:43:51;;;;;;;6.00;3.17;;;19.10;39.90;;;;;;4764626;30;20286;-80
2021/12/07 09:46:18;;;;;;;11.10;3.20;;;19.10;39.20;;;;;;4783569;30;20255;-80
2021/12/07 09:48:46;;;;;;;8.18;3.17;;;19.10;39.20;;;;;;4783088;30;20222;-80
2021/12/07 09:51:16;;;;;;;7.65;3.25;;;19.20;39.30;;;;;;4779613;30;20266;-81
2021/12/07 09:53:43;;;;;;;6.45;2.92;;;19.20;40.80;;;;;;4780630;30;20219;-79
2021/12/07 09:56:11;;;;;;;13.50;3.10;;;19.10;39.10;;;;;;4766015;30;20198;-79
2021/12/07 09:58:38;;;;;;;12.10;2.90;;;19.10;39.50;;;;;;4795178;30;20266;-79
2021/12/07 10:01:04;;;;;;;9.45;3.00;;;19.20;40.00;;;;;;4793677;30;20160;-79
2021/12/07 10:03:30;;;;;;;5.32;3.10;;;19.10;39.10;;;;;;4782583;30;20178;-81
2021/12/07 10:05:57;;;;;;;6.40;2.90;;;19.20;38.60;;;;;;4795672;30;20172;-79
2021/12/07 10:08:23;;;;;;;8.25;3.25;;;19.20;39.80;;;;;;4796108;30;20199;-79
2021/12/07 10:10:53;;;;;;;10.55;3.35;;;19.20;40.00;;;;;;4801642;29;20236;-79
2021/12/07 10:13:21;;;;;;;8.05;2.75;;;19.10;39.80;;;;;;4818518;29;20202;-78
2021/12/07 10:15:47;;;;;;;6.55;2.90;;;19.20;39.60;;;;;;4834539;29;20178;-79
2021/12/07 10:18:17;;;;;;;6.35;2.75;;;19.20;39.20;;;;;;4801565;29;20250;-79
2021/12/07 10:20:47;;;;;;;7.93;2.70;;;19.20;39.30;;;;;;4802071;29;20167;-79
2021/12/07 10:23:25;;;;;;;7.13;2.90;;;19.20;39.20;;;;;;4788131;29;20159;-79
2021/12/07 10:25:55;;;;;;;4.93;3.00;;;19.20;39.60;;;;;;4773071;29;20182;-79
2021/12/07 10:28:49;;;;;;;5.05;2.97;;;19.20;38.70;;;;;;4776270;29;20178;-79
2021/12/07 10:31:35;;;;;;;6.30;2.88;;;19.20;39.10;;;;;;4822043;29;20178;-79
2021/12/07 10:34:14;;;;;;;5.60;2.70;;;19.20;39.20;;;;;;4800611;29;20214;-79
2021/12/07 10:37:00;;;;;;;6.05;2.85;;;19.20;39.60;;;;;;4801655;29;20175;-80
2021/12/07 10:39:32;;;;;;;5.65;3.35;;;19.20;39.20;;;;;;4789210;29;20177;-79
2021/12/07 10:42:01;;;;;;;5.35;2.65;;;19.20;39.30;;;;;;4786984;29;20186;-81
2021/12/07 10:44:30;;;;;;;5.75;2.40;;;19.20;39.60;;;;;;4764376;30;20199;-79
2021/12/07 10:47:00;;;;;;;6.47;2.97;;;19.20;39.60;;;;;;4755130;30;20188;-80
2021/12/07 10:49:32;;;;;;;5.88;2.92;;;19.20;39.80;;;;;;4780147;30;20298;-80
2021/12/07 10:52:14;;;;;;;6.22;2.80;;;19.10;39.90;;;;;;4769333;30;20160;-79
2021/12/07 10:54:48;;;;;;;3.78;2.60;;;19.10;39.10;;;;;;4798729;30;20183;-79
2021/12/07 10:57:21;;;;;;;4.78;2.70;;;19.20;40.00;;;;;;4769244;30;20176;-79
2021/12/07 10:59:53;;;;;;;5.70;2.97;;;19.10;39.60;;;;;;4768425;30;20259;-79
2021/12/07 11:02:21;;;;;;;4.72;2.88;;;19.20;38.90;;;;;;4769018;30;20172;-79
2021/12/07 11:04:49;;;;;;;4.18;2.60;;;19.20;39.80;;;;;;4768547;30;20234;-80
2021/12/07 11:07:25;;;;;;;4.90;2.85;;;19.10;39.30;;;;;;4768772;30;20164;-80
2021/12/07 11:10:06;;;;;;;3.78;2.70;;;19.20;39.20;;;;;;4769270;30;20234;-79
2021/12/07 11:12:46;;;;;;;5.93;2.90;;;19.20;38.80;;;;;;4770981;30;20730;-79
2021/12/07 11:15:17;;;;;;;4.07;2.67;;;19.20;40.60;;;;;;4781578;29;20224;-80
2021/12/07 11:17:43;;;;;;;3.97;2.75;;;19.20;38.80;;;;;;4802292;29;20293;-80
2021/12/07 11:20:10;;;;;;;4.63;2.90;;;19.20;39.90;;;;;;4786704;29;20224;-80
2021/12/07 11:22:44;;;;;;;3.63;2.25;;;19.20;39.60;;;;;;4805751;29;20182;-79
2021/12/07 11:25:11;;;;;;;5.82;2.78;;;19.20;39.60;;;;;;4806041;29;20173;-79
2021/12/07 11:30:18;;;;;;;4.05;2.40;;;19.20;39.80;;;;;;4808543;29;20167;-80
2021/12/07 11:32:51;;;;;;;4.75;2.83;;;19.20;39.90;;;;;;4789975;29;20560;-79
2021/12/07 11:35:19;;;;;;;5.10;3.10;;;19.20;39.50;;;;;;4819972;29;20171;-79
2021/12/07 11:37:45;;;;;;;3.50;2.83;;;19.20;39.70;;;;;;4790249;29;20620;-79
2021/12/07 11:40:13;;;;;;;4.35;2.47;;;19.20;39.20;;;;;;4822802;29;20166;-79
2021/12/07 11:42:42;;;;;;;3.90;2.20;;;19.20;38.90;;;;;;4794418;29;20170;-80
2021/12/07 11:45:12;;;;;;;3.03;2.42;;;19.20;40.00;;;;;;4793810;29;20199;-80
2021/12/07 11:47:46;;;;;;;5.18;2.65;;;19.20;39.30;;;;;;4807641;29;20191;-79
2021/12/07 11:50:36;;;;;;;3.72;2.78;;;19.20;39.30;;;;;;4792818;29;20216;-80
2021/12/07 11:53:06;;;;;;;4.13;2.70;;;19.20;38.60;;;;;;4823838;29;20751;-79
2021/12/07 11:55:32;;;;;;;3.60;2.63;;;19.20;39.60;;;;;;4823079;29;20176;-79
2021/12/07 11:57:58;;;;;;;3.92;2.50;;;19.20;39.00;;;;;;4793303;29;20245;-79
2021/12/07 12:00:28;;;;;;;3.78;2.90;;;19.20;39.30;;;;;;4807548;29;20200;-79
2021/12/07 12:02:55;;;;;;;3.72;2.70;;;19.30;39.00;;;;;;4823081;29;20162;-79
2021/12/07 12:05:26;;;;;;;3.47;2.55;;;19.30;38.90;;;;;;4823132;29;20649;-80
2021/12/07 12:07:53;;;;;;;3.00;2.58;;;19.30;39.60;;;;;;4823065;29;20339;-79
2021/12/07 12:10:20;;;;;;;2.80;2.30;;;19.30;39.00;;;;;;4792682;29;20289;-80
2021/12/07 12:13:10;;;;;;;4.22;2.75;;;19.20;38.90;;;;;;4822676;29;20262;-79
2021/12/07 12:16:00;;;;;;;6.35;2.85;;;19.30;39.30;;;;;;4824078;29;20665;-80
2021/12/07 12:18:35;;;;;;;5.47;2.72;;;19.30;39.50;;;;;;4810124;29;20166;-80
2021/12/07 12:21:16;;;;;;;4.32;2.78;;;19.30;39.30;;;;;;4793618;29;20540;-80
2021/12/07 12:24:11;;;;;;;4.03;2.67;;;19.30;39.00;;;;;;4808268;29;20190;-80
2021/12/07 12:26:39;;;;;;;3.83;2.50;;;19.30;39.20;;;;;;4822647;29;20234;-80
2021/12/07 12:29:22;;;;;;;3.28;2.50;;;19.20;38.80;;;;;;4821960;29;20167;-80
2021/12/07 12:31:53;;;;;;;3.40;2.50;;;19.30;38.80;;;;;;4793164;29;20208;-79
2021/12/07 12:34:28;;;;;;;4.22;2.60;;;19.30;38.50;;;;;;4807478;29;20163;-79
2021/12/07 12:37:19;;;;;;;2.65;2.42;;;19.30;39.10;;;;;;4792250;29;20177;-79
2021/12/07 12:40:08;;;;;;;2.92;2.65;;;19.30;39.10;;;;;;4822203;29;20178;-79
2021/12/07 12:42:45;;;;;;;3.15;2.40;;;19.20;39.30;;;;;;4805129;29;20167;-79
2021/12/07 12:45:26;;;;;;;3.28;2.78;;;19.20;38.90;;;;;;4805934;29;20166;-79
2021/12/07 12:47:58;;;;;;;5.80;2.40;;;19.20;39.00;;;;;;4793549;29;20174;-79
2021/12/07 12:50:30;;;;;;;3.38;2.45;;;19.20;38.50;;;;;;4820369;29;20622;-79
2021/12/07 12:52:59;;;;;;;3.67;2.50;;;19.30;38.90;;;;;;4806309;29;20225;-79
2021/12/07 12:55:30;;;;;;;3.78;2.40;;;19.20;38.60;;;;;;4821032;29;20154;-79
2021/12/07 12:57:56;;;;;;;5.35;2.63;;;19.30;38.60;;;;;;4819101;29;20162;-78
2021/12/07 13:01:00;;;;;;;4.57;2.28;;;19.30;38.40;;;;;;4820721;29;20238;-79
2021/12/07 13:03:43;;;;;;;4.22;2.80;;;19.30;39.30;;;;;;4837953;29;20180;-79
2021/12/07 13:06:12;;;;;;;3.42;2.60;;;19.30;38.80;;;;;;4806527;29;20215;-80
2021/12/07 13:08:53;;;;;;;3.47;2.70;;;19.30;38.20;;;;;;4806941;29;20162;-79
2021/12/07 13:11:34;;;;;;;3.17;2.65;;;19.30;38.70;;;;;;4836986;29;20230;-80
2021/12/07 13:14:02;;;;;;;4.03;2.70;;;19.20;38.60;;;;;;4805888;29;20296;-80
2021/12/07 13:16:33;;;;;;;4.47;2.22;;;19.20;39.30;;;;;;4791439;29;20178;-80
2021/12/07 13:19:01;;;;;;;3.28;2.80;;;19.20;39.10;;;;;;4807172;29;20610;-79
2021/12/07 13:21:29;;;;;;;3.60;2.60;;;19.20;39.20;;;;;;4806051;29;20524;-80
2021/12/07 13:24:00;;;;;;;3.65;2.72;;;19.20;38.70;;;;;;4806418;29;20166;-80
2021/12/07 13:26:27;;;;;;;4.20;2.53;;;19.30;38.40;;;;;;4791377;29;20212;-80
2021/12/07 13:29:15;;;;;;;4.28;2.50;;;19.30;39.20;;;;;;4806731;29;20170;-80
2021/12/07 13:31:43;;;;;;;2.90;2.50;;;19.30;39.00;;;;;;4791674;29;20174;-80
2021/12/07 13:34:10;;;;;;;3.22;2.40;;;19.30;39.30;;;;;;4806257;29;20255;-80
2021/12/07 13:37:07;;;;;;;4.72;2.35;;;19.20;38.90;;;;;;4821375;29;20272;-80
2021/12/07 13:39:36;;;;;;;3.10;2.70;;;19.20;39.10;;;;;;4806300;29;20245;-81
2021/12/07 13:42:22;;;;;;;4.32;2.88;;;19.20;38.80;;;;;;4790929;29;20230;-80
2021/12/07 13:44:57;;;;;;;3.58;2.40;;;19.30;38.20;;;;;;4808029;29;20174;-81
2021/12/07 13:47:27;;;;;;;2.90;2.33;;;19.30;38.50;;;;;;4806434;29;20158;-80
2021/12/07 13:50:00;;;;;;;5.93;2.58;;;19.30;38.50;;;;;;4806945;29;20144;-81
2021/12/07 13:52:29;;;;;;;3.95;2.75;;;19.30;38.00;;;;;;4791568;29;20220;-80
2021/12/07 13:55:00;;;;;;;3.63;2.50;;;19.30;38.70;;;;;;4821348;29;20174;-80
2021/12/07 13:57:30;;;;;;;3.33;2.40;;;19.20;37.70;;;;;;4790977;29;20188;-80
2021/12/07 14:00:12;;;;;;;3.42;2.53;;;19.30;37.90;;;;;;4791075;29;20542;-80
2021/12/07 14:02:40;;;;;;;4.78;2.63;;;19.30;37.80;;;;;;4804934;29;20284;-79
2021/12/07 14:05:10;;;;;;;5.35;2.60;;;19.30;38.00;;;;;;4805912;29;20181;-79
2021/12/07 14:07:39;;;;;;;8.50;2.67;;;19.20;38.50;;;;;;4790302;29;20239;-79
2021/12/07 14:10:12;;;;;;;4.88;2.75;;;19.20;38.40;;;;;;4805439;29;20257;-79
2021/12/07 14:12:53;;;;;;;3.85;2.55;;;19.20;38.20;;;;;;4790604;29;20778;-80
2021/12/07 14:15:23;;;;;;;6.57;2.75;;;19.30;37.90;;;;;;4783684;30;20198;-79
2021/12/07 14:17:53;;;;;;;5.53;2.97;;;19.30;38.30;;;;;;4761681;30;20655;-79
2021/12/07 14:20:29;;;;;;;4.85;2.80;;;19.30;38.50;;;;;;4747752;30;20185;-80
2021/12/07 14:23:12;;;;;;;6.57;3.10;;;19.20;38.10;;;;;;4733523;30;20202;-79
2021/12/07 14:25:58;;;;;;;7.38;2.75;;;19.20;38.10;;;;;;4749862;30;20318;-80
2021/12/07 14:28:31;;;;;;;11.38;3.00;;;19.20;37.50;;;;;;4733174;30;20212;-80
2021/12/07 14:31:00;;;;;;;6.50;2.65;;;19.30;38.00;;;;;;4748281;30;20551;-80
2021/12/07 14:33:26;;;;;;;7.00;2.53;;;19.20;38.40;;;;;;4748003;30;20252;-81